Time;durP1;ratioP1;P1;durP2;ratioP2;P2;SDS_P1;SDS_P2;PMS_P1;PMS_P2;Temp;Humidity;BMP_temperature;BMP_pressure;BME280_temperature;BME280_humidity;BME280_pressure;Samples;Min_cycle;Max_cycle;Signal;HPM_P1;HPM_P2
2022/11/05 00:17:27;;;;;;;;;;;7.70;99.90;;;;;;5071192;28;20065;-69
2022/11/05 00:19:53;;;;;;;;;;;7.60;99.90;;;;;;5071061;28;19972;-68
2022/11/05 00:25:18;;;;;;;;;;;7.70;99.90;;;;;;5071164;28;19983;-68
2022/11/05 00:27:44;;;;;;;;;;;7.50;99.90;;;;;;5087979;28;19925;-67
2022/11/05 00:30:11;;;;;;;;;;;7.50;99.90;;;;;;5104923;28;19925;-68
2022/11/05 00:32:37;;;;;;;;;;;7.50;99.90;;;;;;5070952;28;20061;-68
2022/11/05 00:35:03;;;;;;;;;;;7.50;99.90;;;;;;5071137;28;19971;-68
2022/11/05 00:37:28;;;;;;;;;;;7.50;99.90;;;;;;5054611;28;19932;-68
2022/11/05 00:39:54;;;;;;;;;;;7.50;99.90;;;;;;5072010;28;20019;-68
2022/11/05 00:45:05;;;;;;;;;;;7.40;99.90;;;;;;5070886;28;19925;-68
2022/11/05 00:50:15;;;;;;;;;;;7.40;99.90;;;;;;5071073;28;19974;-68
2022/11/05 00:52:56;;;;;;;;;;;7.40;99.90;;;;;;5104512;28;19928;-68
2022/11/05 00:55:22;;;;;;;;;;;7.40;99.90;;;;;;5070184;28;19973;-68
2022/11/05 00:57:48;;;;;;;;;;;7.40;99.90;;;;;;5104241;28;19925;-68
2022/11/05 01:00:14;;;;;;;;;;;7.40;99.90;;;;;;5071537;28;19985;-68
2022/11/05 01:02:40;;;;;;;;;;;7.30;99.90;;;;;;5070202;28;19924;-68
2022/11/05 01:05:06;;;;;;;;;;;7.30;99.90;;;;;;5070754;28;20054;-67
2022/11/05 01:07:31;;;;;;;;;;;7.30;99.90;;;;;;5087173;28;19925;-67
2022/11/05 01:09:57;;;;;;;;;;;7.30;99.90;;;;;;5086699;28;19924;-67
2022/11/05 01:12:22;;;;;;;;;;;7.30;99.90;;;;;;5071800;28;19978;-67
2022/11/05 01:14:48;;;;;;;;;;;7.30;99.90;;;;;;5071272;28;19928;-67
2022/11/05 01:17:14;;;;;;;;;;;7.30;99.90;;;;;;5087425;28;19924;-67
2022/11/05 01:19:39;;;;;;;;;;;7.30;99.90;;;;;;5069710;28;19924;-68
2022/11/05 01:22:05;;;;;;;;;;;7.20;99.90;;;;;;5086858;28;19929;-68
2022/11/05 01:24:31;;;;;;;;;;;7.20;99.90;;;;;;5070378;28;20012;-68
2022/11/05 01:26:56;;;;;;;;;;;7.20;99.90;;;;;;5103794;28;20015;-68
2022/11/05 01:29:22;;;;;;;;;;;7.20;99.90;;;;;;5102740;28;20284;-68
2022/11/05 01:31:47;;;;;;;;;;;7.20;99.90;;;;;;5070970;28;19931;-68
2022/11/05 01:34:13;;;;;;;;;;;7.20;99.90;;;;;;5070676;28;19977;-68
2022/11/05 01:36:38;;;;;;;;;;;7.20;99.90;;;;;;5071663;28;19929;-69
2022/11/05 01:39:04;;;;;;;;;;;7.20;99.90;;;;;;5103340;28;19925;-68
2022/11/05 01:41:29;;;;;;;;;;;7.20;99.90;;;;;;5105172;28;20010;-68
2022/11/05 01:43:56;;;;;;;;;;;7.20;99.90;;;;;;5074233;28;19924;-68
2022/11/05 01:46:31;;;;;;;;;;;7.20;99.90;;;;;;5074756;28;19940;-63
2022/11/05 01:49:03;;;;;;;;;;;7.20;99.90;;;;;;5074507;28;19943;-62
2022/11/05 01:51:29;;;;;;;;;;;7.10;99.90;;;;;;5072589;28;20027;-63
2022/11/05 01:54:04;;;;;;;;;;;7.10;99.90;;;;;;5073920;28;20250;-62
2022/11/05 01:56:44;;;;;;;;;;;7.10;99.90;;;;;;5074768;28;20019;-62
2022/11/05 01:59:21;;;;;;;;;;;7.10;99.90;;;;;;5074379;28;19925;-63
2022/11/05 02:01:46;;;;;;;;;;;7.10;99.90;;;;;;5074406;28;20047;-62
2022/11/05 02:04:14;;;;;;;;;;;7.10;99.90;;;;;;5074200;28;19964;-62
2022/11/05 02:06:44;;;;;;;;;;;7.10;99.90;;;;;;5073044;28;20367;-61
2022/11/05 02:09:22;;;;;;;;;;;7.00;99.90;;;;;;5074563;28;19925;-61
2022/11/05 02:11:48;;;;;;;;;;;7.00;99.90;;;;;;5072171;28;19924;-62
2022/11/05 02:14:14;;;;;;;;;;;7.00;99.90;;;;;;5073806;28;20046;-67
2022/11/05 02:16:39;;;;;;;;;;;7.00;99.90;;;;;;5074381;28;19925;-62
2022/11/05 02:19:24;;;;;;;;;;;7.00;99.90;;;;;;5106380;28;19924;-61
2022/11/05 02:21:58;;;;;;;;;;;7.00;99.90;;;;;;5072849;28;19928;-61
2022/11/05 02:24:39;;;;;;;;;;;7.00;99.90;;;;;;5072120;28;19924;-61
2022/11/05 02:27:17;;;;;;;;;;;7.00;99.90;;;;;;5106385;28;19925;-61
2022/11/05 02:29:46;;;;;;;;;;;7.00;99.90;;;;;;5074247;28;19931;-62
2022/11/05 02:32:28;;;;;;;;;;;7.00;99.90;;;;;;5071500;28;19928;-61
2022/11/05 02:35:14;;;;;;;;;;;7.00;99.90;;;;;;5072269;28;20391;-61
2022/11/05 02:37:40;;;;;;;;;;;7.00;99.90;;;;;;5073047;28;20018;-61
2022/11/05 02:40:25;;;;;;;;;;;6.90;99.90;;;;;;5089511;28;19978;-62
2022/11/05 02:42:53;;;;;;;;;;;6.90;99.90;;;;;;5073547;28;19931;-68
2022/11/05 02:45:19;;;;;;;;;;;6.90;99.90;;;;;;5073634;28;20027;-62
2022/11/05 02:47:57;;;;;;;;;;;6.90;99.90;;;;;;5073576;28;20399;-61
2022/11/05 02:50:32;;;;;;;;;;;6.90;99.90;;;;;;5071307;28;19943;-62
2022/11/05 02:53:01;;;;;;;;;;;6.90;99.90;;;;;;5073233;28;19925;-61
2022/11/05 02:55:33;;;;;;;;;;;6.90;99.90;;;;;;5072629;28;19932;-61
2022/11/05 02:58:00;;;;;;;;;;;6.80;99.90;;;;;;5073275;28;19929;-61
2022/11/05 03:00:38;;;;;;;;;;;6.80;99.90;;;;;;5088890;28;19932;-61
2022/11/05 03:03:04;;;;;;;;;;;6.80;99.90;;;;;;5072636;28;19931;-61
2022/11/05 03:05:43;;;;;;;;;;;6.80;99.90;;;;;;5073166;28;20401;-62
2022/11/05 03:08:17;;;;;;;;;;;6.80;99.90;;;;;;5071485;28;19920;-61
2022/11/05 03:11:05;;;;;;;;;;;6.80;99.90;;;;;;5106074;28;19936;-61
2022/11/05 03:13:37;;;;;;;;;;;6.80;99.90;;;;;;5073743;28;19981;-61
2022/11/05 03:16:10;;;;;;;;;;;6.70;99.90;;;;;;5072010;28;19925;-61
2022/11/05 03:18:42;;;;;;;;;;;6.70;99.90;;;;;;5072976;28;19931;-62
2022/11/05 03:21:17;;;;;;;;;;;6.70;99.90;;;;;;5072277;28;19932;-62
2022/11/05 03:23:53;;;;;;;;;;;6.80;99.90;;;;;;5089062;28;19924;-61
2022/11/05 03:26:30;;;;;;;;;;;6.80;99.90;;;;;;5071520;28;19928;-62
2022/11/05 03:29:05;;;;;;;;;;;6.70;99.90;;;;;;5071470;28;19924;-67
2022/11/05 03:31:32;;;;;;;;;;;6.70;99.90;;;;;;5105491;28;19925;-62
2022/11/05 03:33:59;;;;;;;;;;;6.70;99.90;;;;;;5072537;28;20016;-64
2022/11/05 03:36:31;;;;;;;;;;;6.70;99.90;;;;;;5073005;28;19987;-61
2022/11/05 03:38:58;;;;;;;;;;;6.80;99.90;;;;;;5072556;28;19928;-66
2022/11/05 03:41:24;;;;;;;;;;;6.80;99.90;;;;;;5105764;28;20307;-61
2022/11/05 03:43:53;;;;;;;;;;;6.70;99.90;;;;;;5072842;28;19970;-61
2022/11/05 03:46:25;;;;;;;;;;;6.80;99.90;;;;;;5072330;28;19997;-61
2022/11/05 03:48:54;;;;;;;;;;;6.80;99.90;;;;;;5105218;28;19924;-63
2022/11/05 03:51:38;;;;;;;;;;;6.80;99.90;;;;;;5071039;28;20398;-62
2022/11/05 03:54:04;;;;;;;;;;;6.80;99.90;;;;;;5071724;28;19924;-61
2022/11/05 03:56:44;;;;;;;;;;;6.90;99.90;;;;;;5071193;28;20429;-61
2022/11/05 03:59:10;;;;;;;;;;;6.90;99.90;;;;;;5086966;28;20358;-67
2022/11/05 04:01:36;;;;;;;;;;;6.90;99.90;;;;;;5071817;28;20017;-62
2022/11/05 04:04:02;;;;;;;;;;;7.00;99.90;;;;;;5070747;28;19924;-66
2022/11/05 04:14:40;;;;;;;;;;;7.10;99.90;;;;;;5071530;28;20001;-61
2022/11/05 04:17:06;;;;;;;;;;;7.20;99.90;;;;;;5071757;28;20041;-61
2022/11/05 04:25:07;;;;;;;;;;;7.20;99.90;;;;;;5070231;28;20374;-61
2022/11/05 04:27:33;;;;;;;;;;;7.20;99.90;;;;;;5071885;28;19924;-63
2022/11/05 04:30:17;;;;;;;;;;;7.20;99.90;;;;;;5071418;28;20291;-61
2022/11/05 04:32:55;;;;;;;;;;;7.20;99.90;;;;;;5099492;28;20295;-61
2022/11/05 04:35:21;;;;;;;;;;;7.30;99.90;;;;;;5071546;28;20343;-61
2022/11/05 04:37:46;;;;;;;;;;;7.30;99.90;;;;;;5104797;28;20023;-61
2022/11/05 04:40:12;;;;;;;;;;;7.30;99.90;;;;;;5086773;28;19924;-61
2022/11/05 04:42:37;;;;;;;;;;;7.30;99.90;;;;;;5071682;28;19931;-61
2022/11/05 04:45:03;;;;;;;;;;;7.30;99.90;;;;;;5071567;28;19971;-61
2022/11/05 04:47:29;;;;;;;;;;;7.30;99.90;;;;;;5071674;28;19928;-61
2022/11/05 04:49:54;;;;;;;;;;;7.30;99.90;;;;;;5069773;28;20347;-61
2022/11/05 04:52:20;;;;;;;;;;;7.50;99.90;;;;;;5069918;28;19967;-61
2022/11/05 04:54:45;;;;;;;;;;;7.20;99.90;;;;;;5071388;28;19931;-61
2022/11/05 04:57:11;;;;;;;;;;;7.20;99.90;;;;;;5071006;28;19924;-61
2022/11/05 04:59:37;;;;;;;;;;;7.20;99.90;;;;;;5071635;28;19924;-61
2022/11/05 05:02:02;;;;;;;;;;;7.20;99.90;;;;;;5103345;28;19925;-63
2022/11/05 05:04:28;;;;;;;;;;;7.20;99.90;;;;;;5069861;28;19928;-61
2022/11/05 05:06:53;;;;;;;;;;;7.10;99.90;;;;;;5070176;28;20262;-61
2022/11/05 05:09:19;;;;;;;;;;;7.20;99.90;;;;;;5070010;28;20015;-62
2022/11/05 05:11:45;;;;;;;;;;;7.20;99.90;;;;;;5103388;28;19924;-61
2022/11/05 05:14:10;;;;;;;;;;;7.10;99.90;;;;;;5071075;28;19925;-66
2022/11/05 05:16:36;;;;;;;;;;;7.10;99.90;;;;;;5072292;28;19925;-62
2022/11/05 05:19:01;;;;;;;;;;;7.10;99.90;;;;;;5090619;28;20486;-62
2022/11/05 05:21:39;;;;;;;;;;;7.00;99.90;;;;;;5074825;28;19924;-62
2022/11/05 05:24:07;;;;;;;;;;;7.40;99.90;;;;;;5104488;28;19963;-61
2022/11/05 05:26:34;;;;;;;;;;;7.00;99.90;;;;;;5106907;28;19932;-62
2022/11/05 05:29:00;;;;;;;;;;;7.00;99.90;;;;;;5108105;28;20359;-61
2022/11/05 05:31:25;;;;;;;;;;;7.00;99.90;;;;;;5073944;28;19924;-61
2022/11/05 05:33:54;;;;;;;;;;;6.90;99.90;;;;;;5074657;28;19924;-61
2022/11/05 05:36:20;;;;;;;;;;;7.00;99.90;;;;;;5074441;28;20023;-61
2022/11/05 05:38:45;;;;;;;;;;;6.90;99.90;;;;;;5107893;28;20007;-61
2022/11/05 05:41:11;;;;;;;;;;;6.90;99.90;;;;;;5074652;28;19924;-63
2022/11/05 05:43:37;;;;;;;;;;;6.90;99.90;;;;;;5107166;28;19988;-61
2022/11/05 05:46:03;;;;;;;;;;;6.90;99.90;;;;;;5074615;28;19924;-61
2022/11/05 05:48:28;;;;;;;;;;;6.80;99.90;;;;;;5073062;28;19936;-61
2022/11/05 05:50:58;;;;;;;;;;;6.80;99.90;;;;;;5073286;28;19925;-61
2022/11/05 05:53:24;;;;;;;;;;;7.10;99.90;;;;;;5073516;28;19925;-62
2022/11/05 05:55:51;;;;;;;;;;;6.80;99.90;;;;;;5074144;28;19924;-62
2022/11/05 05:58:17;;;;;;;;;;;6.70;99.90;;;;;;5072876;28;19950;-67
2022/11/05 06:00:42;;;;;;;;;;;6.80;99.90;;;;;;5073992;28;19924;-62
2022/11/05 06:03:08;;;;;;;;;;;7.00;99.90;;;;;;5073583;28;19993;-62
2022/11/05 06:05:34;;;;;;;;;;;6.70;99.90;;;;;;5072512;28;19944;-62
2022/11/05 06:07:59;;;;;;;;;;;6.60;99.90;;;;;;5074170;28;19925;-62
2022/11/05 06:10:25;;;;;;;;;;;6.60;99.90;;;;;;5105946;28;19924;-62
2022/11/05 06:12:50;;;;;;;;;;;6.60;99.90;;;;;;5073941;28;20412;-62
2022/11/05 06:15:16;;;;;;;;;;;6.70;99.90;;;;;;5090254;28;19924;-62
2022/11/05 06:17:42;;;;;;;;;;;6.70;99.90;;;;;;5073857;28;19970;-62
2022/11/05 06:20:08;;;;;;;;;;;6.70;99.90;;;;;;5074436;28;19925;-62
2022/11/05 06:22:34;;;;;;;;;;;6.70;99.90;;;;;;5074111;28;20290;-62
2022/11/05 06:24:59;;;;;;;;;;;6.70;99.90;;;;;;5074563;28;19928;-62
2022/11/05 06:27:25;;;;;;;;;;;6.70;99.90;;;;;;5073596;28;19924;-62
2022/11/05 06:29:50;;;;;;;;;;;6.60;99.90;;;;;;5073511;28;19924;-61
2022/11/05 06:32:16;;;;;;;;;;;6.60;99.90;;;;;;5089323;28;20018;-61
2022/11/05 06:34:41;;;;;;;;;;;6.60;99.90;;;;;;5073667;28;19951;-61
2022/11/05 06:37:07;;;;;;;;;;;6.60;99.90;;;;;;5073481;28;20264;-62
2022/11/05 06:39:33;;;;;;;;;;;6.80;99.90;;;;;;5071225;28;20283;-65
2022/11/05 06:41:59;;;;;;;;;;;6.60;99.90;;;;;;5073612;28;19935;-61
2022/11/05 06:44:24;;;;;;;;;;;6.50;99.90;;;;;;5073723;28;19925;-69
2022/11/05 06:46:50;;;;;;;;;;;6.50;99.90;;;;;;5105968;28;19924;-65
2022/11/05 06:49:16;;;;;;;;;;;6.50;99.90;;;;;;5073402;28;20371;-63
2022/11/05 06:51:41;;;;;;;;;;;6.50;99.90;;;;;;5088479;28;20029;-62
2022/11/05 06:54:07;;;;;;;;;;;6.50;99.90;;;;;;5073110;28;19924;-63
2022/11/05 06:56:33;;;;;;;;;;;6.50;99.90;;;;;;5073228;28;19924;-60
2022/11/05 06:58:58;;;;;;;;;;;6.50;99.90;;;;;;5073462;28;19963;-63
2022/11/05 07:01:24;;;;;;;;;;;6.50;99.90;;;;;;5071659;28;20019;-63
2022/11/05 07:03:49;;;;;;;;;;;6.50;99.90;;;;;;5072746;28;20383;-62
2022/11/05 07:06:15;;;;;;;;;;;6.40;99.90;;;;;;5072007;28;20232;-62
2022/11/05 07:08:40;;;;;;;;;;;6.40;99.90;;;;;;5072876;28;20019;-63
2022/11/05 07:11:06;;;;;;;;;;;6.50;99.90;;;;;;5072272;28;19928;-63
2022/11/05 07:13:32;;;;;;;;;;;6.50;99.90;;;;;;5103633;28;19925;-61
2022/11/05 07:15:57;;;;;;;;;;;6.50;99.90;;;;;;5071811;28;19978;-62
2022/11/05 07:18:23;;;;;;;;;;;6.50;99.90;;;;;;5087739;28;19925;-62
2022/11/05 07:20:48;;;;;;;;;;;6.50;99.90;;;;;;5070878;28;20239;-61
2022/11/05 07:23:14;;;;;;;;;;;6.60;99.90;;;;;;5071611;28;19970;-63
2022/11/05 07:25:41;;;;;;;;;;;6.70;99.90;;;;;;5070706;28;19930;-63
2022/11/05 07:28:07;;;;;;;;;;;7.20;99.90;;;;;;5072346;28;19925;-63
2022/11/05 07:30:33;;;;;;;;;;;7.90;99.90;;;;;;5105269;28;20366;-65
2022/11/05 07:32:59;;;;;;;;;;;8.60;99.90;;;;;;5072716;28;19929;-63
2022/11/05 07:35:25;;;;;;;;;;;9.10;99.90;;;;;;5072842;28;20279;-64
2022/11/05 07:37:52;;;;;;;;;;;9.10;99.90;;;;;;5087758;28;19932;-64
2022/11/05 07:40:18;;;;;;;;;;;8.90;99.90;;;;;;5072117;28;19967;-63
2022/11/05 07:42:48;;;;;;;;;;;8.60;99.90;;;;;;5072329;28;19947;-64
2022/11/05 07:45:14;;;;;;;;;;;8.30;99.90;;;;;;5071388;28;20011;-63
2022/11/05 07:47:46;;;;;;;;;;;8.10;99.90;;;;;;5072306;28;20016;-64
2022/11/05 07:50:12;;;;;;;;;;;8.00;99.90;;;;;;5072445;28;19924;-64
2022/11/05 07:52:38;;;;;;;;;;;7.80;99.90;;;;;;5072055;28;19931;-63
2022/11/05 07:55:04;;;;;;;;;;;7.70;99.90;;;;;;5070957;28;19935;-65
2022/11/05 07:57:30;;;;;;;;;;;7.70;99.90;;;;;;5104191;28;20379;-67
2022/11/05 07:59:55;;;;;;;;;;;7.60;99.90;;;;;;5086226;28;19944;-62
2022/11/05 08:02:21;;;;;;;;;;;7.60;99.90;;;;;;5071924;28;19924;-64
2022/11/05 08:04:46;;;;;;;;;;;7.50;99.90;;;;;;5071634;28;19990;-63
2022/11/05 08:07:12;;;;;;;;;;;7.50;99.90;;;;;;5087342;28;19931;-63
2022/11/05 08:09:37;;;;;;;;;;;7.60;99.90;;;;;;5086447;28;20371;-67
2022/11/05 08:12:03;;;;;;;;;;;7.50;99.90;;;;;;5071958;28;19969;-62
2022/11/05 08:14:29;;;;;;;;;;;7.50;99.90;;;;;;5086955;28;19924;-63
2022/11/05 08:16:56;;;;;;;;;;;7.50;99.90;;;;;;5069994;28;20407;-63
2022/11/05 08:19:21;;;;;;;;;;;7.60;99.90;;;;;;5069539;28;20344;-63
2022/11/05 08:21:47;;;;;;;;;;;7.60;99.90;;;;;;5070438;28;19951;-63
2022/11/05 08:24:12;;;;;;;;;;;7.60;99.90;;;;;;5103742;28;19932;-65
2022/11/05 08:26:38;;;;;;;;;;;7.60;99.90;;;;;;5071514;28;19928;-67
2022/11/05 08:29:03;;;;;;;;;;;7.70;99.90;;;;;;5071231;28;20344;-62
2022/11/05 08:31:30;;;;;;;;;;;7.70;99.90;;;;;;5087116;28;20340;-63
2022/11/05 08:33:56;;;;;;;;;;;7.70;99.90;;;;;;5070083;28;19928;-62
2022/11/05 08:36:22;;;;;;;;;;;7.80;99.90;;;;;;5069952;28;19931;-66
2022/11/05 08:38:47;;;;;;;;;;;7.90;99.90;;;;;;5102571;28;20233;-63
2022/11/05 08:41:13;;;;;;;;;;;8.10;99.90;;;;;;5070732;28;19924;-63
2022/11/05 08:43:38;;;;;;;;;;;8.20;99.90;;;;;;5102443;28;19936;-68
2022/11/05 08:46:04;;;;;;;;;;;8.30;99.90;;;;;;5069660;28;20024;-63
2022/11/05 08:48:30;;;;;;;;;;;8.50;99.90;;;;;;5103624;28;19925;-62
2022/11/05 08:50:58;;;;;;;;;;;8.60;99.90;;;;;;5069781;28;19935;-63
2022/11/05 08:53:24;;;;;;;;;;;8.70;99.90;;;;;;5071053;28;19931;-63
2022/11/05 08:55:50;;;;;;;;;;;8.80;99.90;;;;;;5103162;28;19929;-63
2022/11/05 08:58:16;;;;;;;;;;;8.90;99.90;;;;;;5069976;28;19947;-63
2022/11/05 09:00:46;;;;;;;;;;;9.10;99.90;;;;;;5070891;28;20370;-68
2022/11/05 09:03:12;;;;;;;;;;;9.40;99.90;;;;;;5103689;28;19931;-65
2022/11/05 09:05:38;;;;;;;;;;;9.20;99.90;;;;;;5069584;28;19928;-63
2022/11/05 09:08:07;;;;;;;;;;;9.20;99.90;;;;;;5069923;28;20011;-62
2022/11/05 09:10:33;;;;;;;;;;;9.20;99.90;;;;;;5071442;28;19978;-67
2022/11/05 09:12:58;;;;;;;;;;;9.30;99.90;;;;;;5086320;28;19928;-62
2022/11/05 09:15:24;;;;;;;;;;;9.40;99.90;;;;;;5071333;28;19932;-63
2022/11/05 09:17:50;;;;;;;;;;;9.50;99.90;;;;;;5085637;28;19924;-63
2022/11/05 09:20:15;;;;;;;;;;;9.70;99.90;;;;;;5071132;28;19994;-63
2022/11/05 09:22:41;;;;;;;;;;;9.80;99.90;;;;;;5071316;28;19971;-65
2022/11/05 09:25:07;;;;;;;;;;;9.90;99.90;;;;;;5070957;28;19947;-64
2022/11/05 09:27:32;;;;;;;;;;;10.00;99.90;;;;;;5069936;28;20008;-64
2022/11/05 09:29:58;;;;;;;;;;;10.10;99.90;;;;;;5086499;28;19981;-63
2022/11/05 09:32:23;;;;;;;;;;;10.10;99.90;;;;;;5071160;28;19925;-63
2022/11/05 09:34:49;;;;;;;;;;;10.10;99.90;;;;;;5071025;28;20326;-65
2022/11/05 09:37:15;;;;;;;;;;;10.20;99.90;;;;;;5071028;28;19999;-63
2022/11/05 09:39:41;;;;;;;;;;;10.20;99.90;;;;;;5070908;28;20405;-64
2022/11/05 09:42:07;;;;;;;;;;;10.30;99.90;;;;;;5070722;28;20113;-63
2022/11/05 09:44:39;;;;;;;;;;;10.30;99.90;;;;;;5070426;28;19924;-68
2022/11/05 09:47:10;;;;;;;;;;;10.40;99.90;;;;;;5068263;28;19925;-63
2022/11/05 09:49:46;;;;;;;;;;;10.30;99.90;;;;;;5086708;28;19931;-63
2022/11/05 09:52:20;;;;;;;;;;;10.40;99.90;;;;;;5103669;28;20276;-64
2022/11/05 09:54:47;;;;;;;;;;;10.40;99.90;;;;;;5070874;28;19943;-64
2022/11/05 09:57:16;;;;;;;;;;;10.50;99.90;;;;;;5070722;28;19970;-64
2022/11/05 09:59:47;;;;;;;;;;;10.50;99.90;;;;;;5069596;28;19929;-64
2022/11/05 10:02:15;;;;;;;;;;;10.50;99.90;;;;;;5070387;28;19924;-65
2022/11/05 10:04:42;;;;;;;;;;;10.50;99.90;;;;;;5074595;28;19951;-65
2022/11/05 10:07:11;;;;;;;;;;;10.50;99.90;;;;;;5106201;28;19924;-64
2022/11/05 10:09:37;;;;;;;;;;;10.50;99.90;;;;;;5073017;28;20349;-65
2022/11/05 10:12:21;;;;;;;;;;;10.40;99.90;;;;;;5106862;28;19940;-64
2022/11/05 10:14:49;;;;;;;;;;;10.40;99.90;;;;;;5074096;28;19924;-67
2022/11/05 10:17:19;;;;;;;;;;;10.30;99.90;;;;;;5073000;28;19924;-64
2022/11/05 10:19:48;;;;;;;;;;;10.40;99.90;;;;;;5074369;28;20356;-63
2022/11/05 10:22:15;;;;;;;;;;;10.30;99.90;;;;;;5071322;28;19921;-62
2022/11/05 10:24:42;;;;;;;;;;;10.30;99.90;;;;;;5068578;28;19955;-64
2022/11/05 10:27:13;;;;;;;;;;;10.40;99.90;;;;;;5052748;28;19932;-63
2022/11/05 10:29:41;;;;;;;;;;;10.50;99.90;;;;;;5073694;28;20027;-65
2022/11/05 10:32:07;;;;;;;;;;;10.60;99.90;;;;;;5072425;28;19938;-63
2022/11/05 10:34:33;;;;;;;;;;;10.70;99.90;;;;;;5088970;28;19925;-63
2022/11/05 10:36:59;;;;;;;;;;;10.80;99.90;;;;;;5072548;28;19947;-64
2022/11/05 10:39:28;;;;;;;;;;;10.80;99.90;;;;;;5106884;28;19928;-64
2022/11/05 10:42:16;;;;;;;;;;;10.90;99.90;;;;;;5072583;28;19925;-63
2022/11/05 10:44:42;;;;;;;;;;;10.90;99.90;;;;;;5074265;28;19924;-63
2022/11/05 10:47:13;;;;;;;;;;;11.00;99.90;;;;;;5073037;28;19931;-63
2022/11/05 10:49:48;;;;;;;;;;;11.00;99.90;;;;;;5071773;28;19929;-64
2022/11/05 10:52:34;;;;;;;;;;;11.10;99.90;;;;;;5072944;28;20031;-65
2022/11/05 10:55:01;;;;;;;;;;;11.20;99.90;;;;;;5071389;28;19924;-70
2022/11/05 10:57:34;;;;;;;;;;;11.20;99.90;;;;;;5073283;28;20314;-66
2022/11/05 11:00:23;;;;;;;;;;;11.30;99.90;;;;;;5073071;28;20011;-68
2022/11/05 11:02:54;;;;;;;;;;;11.40;99.90;;;;;;5073183;28;19928;-63
2022/11/05 11:05:22;;;;;;;;;;;11.40;99.90;;;;;;5071367;28;20010;-66
2022/11/05 11:07:52;;;;;;;;;;;11.50;99.90;;;;;;5070486;28;19931;-64
2022/11/05 11:10:20;;;;;;;;;;;11.50;99.90;;;;;;5105291;28;19937;-64
2022/11/05 11:12:48;;;;;;;;;;;11.60;99.90;;;;;;5072516;28;19924;-63
2022/11/05 11:15:14;;;;;;;;;;;11.60;99.90;;;;;;5104757;28;19925;-63
2022/11/05 11:17:39;;;;;;;;;;;11.70;99.90;;;;;;5072555;28;19931;-64
2022/11/05 11:20:23;;;;;;;;;;;11.80;99.90;;;;;;5071467;28;19925;-64
2022/11/05 11:22:59;;;;;;;;;;;11.80;99.90;;;;;;5072252;28;19947;-63
2022/11/05 11:25:26;;;;;;;;;;;11.90;99.90;;;;;;5070915;28;20019;-64
2022/11/05 11:27:52;;;;;;;;;;;11.90;99.90;;;;;;5071354;28;19925;-62
2022/11/05 11:30:18;;;;;;;;;;;11.90;99.90;;;;;;5072727;28;20280;-64
2022/11/05 11:32:44;;;;;;;;;;;12.00;99.90;;;;;;5071997;28;19931;-63
2022/11/05 11:35:18;;;;;;;;;;;12.10;99.90;;;;;;5072624;28;19924;-63
2022/11/05 11:37:44;;;;;;;;;;;12.10;99.90;;;;;;5072964;28;19937;-63
2022/11/05 11:40:19;;;;;;;;;;;12.20;99.90;;;;;;5071276;28;19936;-63
2022/11/05 11:42:46;;;;;;;;;;;12.30;99.90;;;;;;5072532;28;19924;-65
2022/11/05 11:45:23;;;;;;;;;;;12.30;99.90;;;;;;5071904;28;19925;-63
2022/11/05 11:47:49;;;;;;;;;;;12.40;99.90;;;;;;5072418;28;19928;-63
2022/11/05 11:50:30;;;;;;;;;;;12.50;99.90;;;;;;5070687;28;19925;-66
2022/11/05 11:53:15;;;;;;;;;;;12.60;99.90;;;;;;5072484;28;19935;-62
2022/11/05 11:55:54;;;;;;;;;;;12.60;99.90;;;;;;5071229;28;20401;-63
2022/11/05 11:58:20;;;;;;;;;;;12.70;99.90;;;;;;5071713;28;20007;-62
2022/11/05 12:00:48;;;;;;;;;;;12.60;99.90;;;;;;5072173;28;20023;-64
2022/11/05 12:03:20;;;;;;;;;;;12.50;99.90;;;;;;5104137;28;19947;-63
2022/11/05 12:05:58;;;;;;;;;;;12.40;99.90;;;;;;5071611;28;20422;-63
2022/11/05 12:08:42;;;;;;;;;;;12.30;99.90;;;;;;5071750;28;19939;-63
2022/11/05 12:11:14;;;;;;;;;;;12.30;99.90;;;;;;5071305;28;19975;-65
2022/11/05 12:13:58;;;;;;;;;;;12.20;99.90;;;;;;5072296;28;19924;-63
2022/11/05 12:16:28;;;;;;;;;;;12.10;99.90;;;;;;5071731;28;20237;-65
2022/11/05 12:18:54;;;;;;;;;;;12.00;99.90;;;;;;5072014;28;19924;-64
2022/11/05 12:21:58;;;;;;;;;;;11.90;99.90;;;;;;5072012;28;20422;-63
2022/11/05 12:24:26;;;;;;;;;;;11.90;99.90;;;;;;5068860;28;20472;-62
2022/11/05 12:26:52;;;;;;;;;;;11.90;99.90;;;;;;5052553;28;19939;-62
2022/11/05 12:29:33;;;;;;;;;;;11.90;99.90;;;;;;5075803;28;19929;-62
2022/11/05 12:32:21;;;;;;;;;;;11.90;99.90;;;;;;5071641;28;19928;-61
2022/11/05 12:35:05;;;;;;;;;;;11.80;99.90;;;;;;5071840;28;19924;-62
2022/11/05 12:37:54;;;;;;;;;;;11.80;99.90;;;;;;5070263;28;19924;-61
2022/11/05 12:40:38;;;;;;;;;;;11.80;99.90;;;;;;5071675;28;20336;-61
2022/11/05 12:43:19;;;;;;;;;;;11.70;99.90;;;;;;5071385;28;20321;-62
2022/11/05 12:46:13;;;;;;;;;;;11.70;99.90;;;;;;5086830;28;19924;-62
2022/11/05 12:48:41;;;;;;;;;;;11.70;99.90;;;;;;5070332;28;19939;-62
2022/11/05 12:51:07;;;;;;;;;;;11.70;99.90;;;;;;5071873;28;19925;-63
2022/11/05 12:53:38;;;;;;;;;;;11.70;99.90;;;;;;5071431;28;20363;-62
2022/11/05 12:56:15;;;;;;;;;;;11.60;99.90;;;;;;5071670;28;20526;-59
2022/11/05 12:58:46;;;;;;;;;;;11.60;99.90;;;;;;5071638;28;19924;-62
2022/11/05 13:01:15;;;;;;;;;;;11.60;99.90;;;;;;5072171;28;19931;-63
2022/11/05 13:03:43;;;;;;;;;;;11.60;99.90;;;;;;5069979;28;19924;-63
2022/11/05 13:06:31;;;;;;;;;;;11.60;99.90;;;;;;5071430;28;19928;-63
2022/11/05 13:09:00;;;;;;;;;;;11.50;99.90;;;;;;5067327;28;19924;-62
2022/11/05 13:11:34;;;;;;;;;;;11.50;99.90;;;;;;5071121;28;19924;-64
2022/11/05 13:14:03;;;;;;;;;;;11.40;99.90;;;;;;5071497;28;19978;-62
2022/11/05 13:16:34;;;;;;;;;;;11.30;99.90;;;;;;5070668;28;20598;-62
2022/11/05 13:19:08;;;;;;;;;;;11.20;99.90;;;;;;5070107;28;19925;-62
2022/11/05 13:21:35;;;;;;;;;;;11.10;99.90;;;;;;5070903;28;19924;-62
2022/11/05 13:24:13;;;;;;;;;;;11.00;99.90;;;;;;5070165;28;19924;-62
2022/11/05 13:26:44;;;;;;;;;;;10.90;99.90;;;;;;5103654;28;20338;-64
2022/11/05 13:29:10;;;;;;;;;;;10.80;99.90;;;;;;5071214;28;19924;-62
2022/11/05 13:31:40;;;;;;;;;;;10.90;99.90;;;;;;5070687;28;19925;-62
2022/11/05 13:34:10;;;;;;;;;;;10.90;99.90;;;;;;5070494;28;20330;-63
2022/11/05 13:39:35;;;;;;;;;;;10.90;99.90;;;;;;5073694;28;20326;-64
2022/11/05 13:42:09;;;;;;;;;;;10.90;99.90;;;;;;5074960;28;19950;-64
2022/11/05 13:44:37;;;;;;;;;;;11.00;99.90;;;;;;5074608;28;19924;-63
2022/11/05 13:47:18;;;;;;;;;;;11.00;99.90;;;;;;5074980;28;19932;-63
2022/11/05 13:49:43;;;;;;;;;;;11.00;99.90;;;;;;5074307;28;19967;-63
2022/11/05 13:52:32;;;;;;;;;;;11.00;99.90;;;;;;5074622;28;19959;-62
2022/11/05 13:55:25;;;;;;;;;;;11.00;99.90;;;;;;5100321;28;20270;-63
2022/11/05 13:57:59;;;;;;;;;;;11.00;99.90;;;;;;5074688;28;19967;-62
2022/11/05 14:00:26;;;;;;;;;;;11.00;99.90;;;;;;5074353;28;19928;-67
2022/11/05 14:02:55;;;;;;;;;;;11.00;99.90;;;;;;5074509;28;19924;-62
2022/11/05 14:05:47;;;;;;;;;;;11.00;99.90;;;;;;5073502;28;19994;-62
2022/11/05 14:08:17;;;;;;;;;;;11.00;99.90;;;;;;5074074;28;19924;-62
2022/11/05 14:10:44;;;;;;;;;;;11.00;99.90;;;;;;5073976;28;19928;-61
2022/11/05 14:13:19;;;;;;;;;;;11.00;99.90;;;;;;5107160;28;20419;-62
2022/11/05 14:16:11;;;;;;;;;;;11.00;99.90;;;;;;5073655;28;20413;-62
2022/11/05 14:18:39;;;;;;;;;;;11.00;99.90;;;;;;5070945;28;20003;-63
2022/11/05 14:21:25;;;;;;;;;;;11.00;99.90;;;;;;5074123;28;19989;-64
2022/11/05 14:23:52;;;;;;;;;;;11.00;99.90;;;;;;5073487;28;19920;-64
2022/11/05 14:26:24;;;;;;;;;;;11.00;99.90;;;;;;5074092;28;19997;-64
2022/11/05 14:29:10;;;;;;;;;;;11.00;99.90;;;;;;5088156;28;20003;-63
2022/11/05 14:31:41;;;;;;;;;;;11.00;99.90;;;;;;5072461;28;19951;-63
2022/11/05 14:34:07;;;;;;;;;;;11.10;99.90;;;;;;5072896;28;19974;-65
2022/11/05 14:36:36;;;;;;;;;;;11.00;99.90;;;;;;5072454;28;19925;-67
2022/11/05 14:39:22;;;;;;;;;;;11.00;99.90;;;;;;5072923;28;20016;-68
2022/11/05 14:41:55;;;;;;;;;;;11.00;99.90;;;;;;5072102;28;20452;-64
2022/11/05 14:44:21;;;;;;;;;;;11.00;99.90;;;;;;5088349;28;20355;-63
2022/11/05 14:46:48;;;;;;;;;;;11.10;99.90;;;;;;5071157;28;20022;-63
2022/11/05 14:49:16;;;;;;;;;;;11.00;99.90;;;;;;5071437;28;20334;-64
2022/11/05 14:51:48;;;;;;;;;;;11.10;99.90;;;;;;5104608;28;19924;-64
2022/11/05 14:54:13;;;;;;;;;;;11.10;99.90;;;;;;5105405;28;19954;-63
2022/11/05 14:56:43;;;;;;;;;;;11.10;99.90;;;;;;5072206;28;20023;-63
2022/11/05 14:59:31;;;;;;;;;;;11.10;99.90;;;;;;5072598;28;19950;-63
2022/11/05 15:01:57;;;;;;;;;;;11.00;99.90;;;;;;5070890;28;19920;-63
2022/11/05 15:04:25;;;;;;;;;;;11.10;99.90;;;;;;5104732;28;19969;-64
2022/11/05 15:07:00;;;;;;;;;;;11.10;99.90;;;;;;5087398;28;20441;-63
2022/11/05 15:09:45;;;;;;;;;;;11.00;99.90;;;;;;5071139;28;19986;-62
2022/11/05 15:12:24;;;;;;;;;;;11.00;99.90;;;;;;5072228;28;20418;-62
2022/11/05 15:15:00;;;;;;;;;;;11.00;99.90;;;;;;5071596;28;19931;-64
2022/11/05 15:17:37;;;;;;;;;;;11.00;99.90;;;;;;5071792;28;20347;-63
2022/11/05 15:20:17;;;;;;;;;;;11.00;99.90;;;;;;5071328;28;19997;-64
2022/11/05 15:22:47;;;;;;;;;;;10.90;99.90;;;;;;5072416;28;20024;-63